Time;durP1;ratioP1;P1;durP2;ratioP2;P2;SDS_P1;SDS_P2;PMS_P1;PMS_P2;Temp;Humidity;BMP_temperature;BMP_pressure;BME280_temperature;BME280_humidity;BME280_pressure;Samples;Min_cycle;Max_cycle;Signal;HPM_P1;HPM_P2
2023/08/11 00:00:29;;;;;;;14.17;7.60;;;;;;;;;;4892793;29;20168;-74
2023/08/11 00:02:55;;;;;;;11.30;5.83;;;;;;;;;;4892192;29;20283;-74
2023/08/11 00:05:39;;;;;;;11.37;7.00;;;;;;;;;;4892959;29;20255;-73
2023/08/11 00:08:06;;;;;;;10.20;6.60;;;;;;;;;;4894802;29;20201;-74
2023/08/11 00:10:33;;;;;;;9.37;5.70;;;;;;;;;;4895424;29;20695;-74
2023/08/11 00:13:00;;;;;;;8.20;5.07;;;;;;;;;;4895941;29;20735;-74
2023/08/11 00:15:31;;;;;;;10.87;5.27;;;;;;;;;;4896009;29;20596;-74
2023/08/11 00:18:15;;;;;;;9.07;4.60;;;;;;;;;;4895441;29;20218;-74
2023/08/11 00:20:42;;;;;;;9.33;5.40;;;;;;;;;;4896002;29;20281;-74
2023/08/11 00:23:09;;;;;;;7.13;4.57;;;;;;;;;;4895515;29;20176;-74
2023/08/11 00:25:36;;;;;;;9.57;4.83;;;;;;;;;;4895907;29;20656;-74
2023/08/11 00:28:03;;;;;;;10.80;5.23;;;;;;;;;;4878960;29;20619;-74
2023/08/11 00:30:51;;;;;;;7.10;4.27;;;;;;;;;;4881212;29;20687;-74
2023/08/11 00:33:18;;;;;;;7.63;4.43;;;;;;;;;;4892822;29;20211;-74
2023/08/11 00:35:45;;;;;;;9.53;4.63;;;;;;;;;;4914320;29;20184;-74
2023/08/11 00:38:12;;;;;;;8.87;4.50;;;;;;;;;;4913951;29;20204;-74
2023/08/11 00:40:39;;;;;;;9.80;4.47;;;;;;;;;;4914601;29;20651;-74
2023/08/11 00:43:23;;;;;;;8.93;4.23;;;;;;;;;;4925220;29;20182;-74
2023/08/11 00:45:50;;;;;;;8.77;5.43;;;;;;;;;;4915813;29;20199;-74
2023/08/11 00:48:34;;;;;;;11.00;6.43;;;;;;;;;;4915686;29;20179;-74
2023/08/11 00:51:01;;;;;;;12.07;6.10;;;;;;;;;;4916502;29;20181;-74
2023/08/11 00:53:45;;;;;;;9.50;5.83;;;;;;;;;;4933144;29;20178;-74
2023/08/11 00:56:12;;;;;;;7.83;5.47;;;;;;;;;;4915407;29;20204;-74
2023/08/11 00:58:39;;;;;;;8.43;5.30;;;;;;;;;;4915949;29;20209;-74
2023/08/11 01:01:05;;;;;;;8.40;5.43;;;;;;;;;;4932912;29;20229;-74
2023/08/11 01:03:33;;;;;;;10.87;5.07;;;;;;;;;;4932535;29;20685;-74
2023/08/11 01:06:26;;;;;;;8.27;5.00;;;;;;;;;;4902678;29;20214;-74
2023/08/11 01:08:59;;;;;;;7.97;4.80;;;;;;;;;;4915776;29;20714;-74
2023/08/11 01:47:36;;;;;;;8.23;4.97;;;;;;;;;;4896385;29;20610;-74
2023/08/11 01:50:03;;;;;;;10.03;5.10;;;;;;;;;;4879273;29;20212;-74
2023/08/11 01:52:37;;;;;;;6.80;4.87;;;;;;;;;;4879428;29;20193;-74
2023/08/11 01:55:05;;;;;;;10.13;4.83;;;;;;;;;;4880248;29;20751;-74
2023/08/11 01:57:32;;;;;;;12.10;5.77;;;;;;;;;;4862051;29;20322;-74
2023/08/11 02:00:07;;;;;;;10.33;6.87;;;;;;;;;;4862623;29;20282;-74
2023/08/11 02:02:39;;;;;;;13.10;6.90;;;;;;;;;;4894138;29;20825;-74
2023/08/11 02:05:07;;;;;;;12.13;7.13;;;;;;;;;;4893934;29;20529;-74
2023/08/11 02:07:35;;;;;;;10.23;5.50;;;;;;;;;;4893710;29;20220;-74
2023/08/11 02:10:02;;;;;;;9.47;6.50;;;;;;;;;;4893833;29;20224;-74
2023/08/11 02:12:30;;;;;;;12.87;6.53;;;;;;;;;;4877758;29;20192;-75
2023/08/11 02:15:16;;;;;;;9.30;5.83;;;;;;;;;;4878500;29;20187;-74
2023/08/11 02:17:47;;;;;;;10.33;5.80;;;;;;;;;;4878964;29;20645;-74
2023/08/11 02:20:21;;;;;;;8.67;5.57;;;;;;;;;;4877943;29;20199;-76
2023/08/11 02:22:51;;;;;;;11.47;5.60;;;;;;;;;;4876958;29;20751;-75
2023/08/11 02:25:25;;;;;;;9.20;5.13;;;;;;;;;;4877649;29;20271;-75
2023/08/11 02:27:56;;;;;;;7.33;5.43;;;;;;;;;;4877816;29;20181;-75
2023/08/11 02:30:24;;;;;;;8.37;5.10;;;;;;;;;;4875930;29;20212;-75
2023/08/11 02:32:52;;;;;;;10.50;5.80;;;;;;;;;;4877054;29;20255;-75
2023/08/11 02:35:23;;;;;;;9.73;5.47;;;;;;;;;;4894125;29;20240;-75
2023/08/11 02:38:08;;;;;;;10.47;5.87;;;;;;;;;;4881555;29;20203;-75
2023/08/11 02:40:40;;;;;;;8.87;5.50;;;;;;;;;;4877531;29;20679;-75
2023/08/11 02:43:11;;;;;;;9.33;5.43;;;;;;;;;;4910856;29;20230;-75
2023/08/11 02:45:42;;;;;;;9.33;5.03;;;;;;;;;;4912232;29;20218;-75
2023/08/11 02:48:11;;;;;;;9.70;5.20;;;;;;;;;;4912438;29;20197;-75
2023/08/11 02:50:38;;;;;;;11.20;4.90;;;;;;;;;;4897064;29;20187;-75
2023/08/11 02:53:05;;;;;;;8.97;4.90;;;;;;;;;;4897141;29;20199;-75
2023/08/11 02:55:31;;;;;;;10.60;4.93;;;;;;;;;;4896243;29;20317;-76
2023/08/11 02:57:58;;;;;;;10.37;4.60;;;;;;;;;;4895450;29;20770;-75
2023/08/11 03:00:25;;;;;;;9.83;4.67;;;;;;;;;;4876945;29;20322;-75
2023/08/11 03:02:52;;;;;;;9.43;4.50;;;;;;;;;;4893257;29;20196;-74
2023/08/11 03:05:19;;;;;;;9.27;5.50;;;;;;;;;;4876581;29;20240;-75
2023/08/11 03:07:50;;;;;;;9.90;5.23;;;;;;;;;;4876628;29;20291;-75
2023/08/11 03:10:17;;;;;;;7.43;4.70;;;;;;;;;;4891804;29;20739;-75
2023/08/11 03:12:45;;;;;;;7.13;4.67;;;;;;;;;;4908559;29;20694;-75
2023/08/11 03:15:12;;;;;;;7.87;5.20;;;;;;;;;;4911897;29;20210;-75
2023/08/11 03:17:39;;;;;;;8.73;4.97;;;;;;;;;;4895033;29;20219;-75
2023/08/11 03:20:12;;;;;;;7.73;4.97;;;;;;;;;;4878393;29;20286;-75
2023/08/11 03:22:44;;;;;;;6.53;4.77;;;;;;;;;;4881471;29;20199;-75
2023/08/11 03:25:14;;;;;;;7.20;4.80;;;;;;;;;;4879479;29;20199;-75
2023/08/11 03:27:42;;;;;;;7.37;4.47;;;;;;;;;;4864318;29;20195;-75
2023/08/11 03:30:17;;;;;;;7.23;4.53;;;;;;;;;;4880745;29;20593;-75
2023/08/11 03:32:49;;;;;;;9.97;4.47;;;;;;;;;;4894783;29;20568;-75
2023/08/11 03:35:17;;;;;;;8.50;4.30;;;;;;;;;;4878110;29;20191;-75
2023/08/11 03:38:02;;;;;;;8.70;4.10;;;;;;;;;;4894164;29;20286;-75
2023/08/11 03:40:29;;;;;;;6.97;4.10;;;;;;;;;;4893789;29;20678;-75
2023/08/11 03:42:56;;;;;;;7.97;4.30;;;;;;;;;;4896259;29;20196;-74
2023/08/11 03:45:23;;;;;;;6.00;3.73;;;;;;;;;;4897143;29;20205;-75
2023/08/11 03:47:50;;;;;;;7.60;4.00;;;;;;;;;;4912382;29;20196;-75
2023/08/11 03:50:22;;;;;;;7.23;4.13;;;;;;;;;;4914227;29;20189;-75
2023/08/11 03:52:48;;;;;;;8.20;4.50;;;;;;;;;;4914368;29;20275;-75
2023/08/11 03:55:15;;;;;;;8.67;3.90;;;;;;;;;;4896148;29;20212;-75
2023/08/11 03:57:43;;;;;;;6.70;3.97;;;;;;;;;;4889761;29;20208;-75
2023/08/11 04:00:15;;;;;;;9.57;4.47;;;;;;;;;;4900030;29;20592;-74
2023/08/11 04:02:49;;;;;;;7.73;4.43;;;;;;;;;;4898253;29;20215;-74
2023/08/11 04:05:17;;;;;;;6.70;4.03;;;;;;;;;;4895263;29;20204;-74
2023/08/11 04:07:44;;;;;;;7.20;3.67;;;;;;;;;;4884357;29;20250;-75
2023/08/11 04:10:11;;;;;;;7.73;4.10;;;;;;;;;;4880932;29;20236;-74
2023/08/11 04:12:38;;;;;;;8.13;4.17;;;;;;;;;;4893031;29;20634;-74
2023/08/11 04:15:05;;;;;;;8.67;4.03;;;;;;;;;;4892179;29;20616;-73
2023/08/11 04:17:33;;;;;;;7.97;4.20;;;;;;;;;;4893028;29;20197;-75
2023/08/11 04:20:00;;;;;;;6.47;3.40;;;;;;;;;;4892870;29;20249;-75
2023/08/11 04:22:44;;;;;;;9.83;4.30;;;;;;;;;;4893068;29;20198;-75
2023/08/11 04:25:11;;;;;;;7.20;3.67;;;;;;;;;;4877351;29;20292;-76
2023/08/11 04:27:44;;;;;;;9.17;4.43;;;;;;;;;;4891612;29;20585;-75
2023/08/11 04:30:12;;;;;;;8.80;4.30;;;;;;;;;;4889930;29;20554;-75
2023/08/11 04:32:41;;;;;;;8.17;4.13;;;;;;;;;;4863599;29;20193;-75
2023/08/11 04:35:08;;;;;;;10.13;4.73;;;;;;;;;;4878148;29;20205;-75
2023/08/11 04:37:38;;;;;;;7.10;4.80;;;;;;;;;;4876808;29;20236;-75
2023/08/11 04:40:09;;;;;;;9.83;4.90;;;;;;;;;;4877569;29;20212;-75
2023/08/11 04:42:37;;;;;;;10.30;5.60;;;;;;;;;;4868855;29;20731;-75
2023/08/11 04:45:05;;;;;;;8.60;4.87;;;;;;;;;;4891647;29;20620;-76
2023/08/11 04:47:33;;;;;;;13.40;4.80;;;;;;;;;;4876306;29;20296;-76
2023/08/11 04:50:02;;;;;;;7.70;4.50;;;;;;;;;;4891399;29;20201;-77
2023/08/11 04:52:29;;;;;;;9.83;4.80;;;;;;;;;;4877126;29;20193;-77
2023/08/11 04:54:55;;;;;;;11.60;4.67;;;;;;;;;;4878734;29;20217;-77
2023/08/11 04:57:22;;;;;;;9.87;4.43;;;;;;;;;;4865346;29;20288;-75
2023/08/11 04:59:49;;;;;;;8.27;4.03;;;;;;;;;;4862643;29;20221;-77
2023/08/11 05:02:16;;;;;;;10.30;4.30;;;;;;;;;;4872986;29;20283;-77
2023/08/11 05:04:43;;;;;;;5.43;3.90;;;;;;;;;;4864883;29;20212;-75
2023/08/11 05:07:10;;;;;;;8.17;4.33;;;;;;;;;;4862010;29;20243;-75
2023/08/11 05:09:38;;;;;;;8.03;3.70;;;;;;;;;;4881577;29;20185;-75
2023/08/11 05:12:05;;;;;;;7.97;3.90;;;;;;;;;;4895174;29;20238;-76
2023/08/11 05:14:32;;;;;;;6.60;4.00;;;;;;;;;;4906149;29;20205;-76
2023/08/11 05:16:59;;;;;;;6.47;3.53;;;;;;;;;;4924349;29;20199;-75
2023/08/11 05:19:31;;;;;;;5.60;3.43;;;;;;;;;;4912650;29;20563;-76
2023/08/11 05:21:58;;;;;;;6.63;4.00;;;;;;;;;;4907621;29;20755;-76
2023/08/11 05:24:43;;;;;;;5.87;3.30;;;;;;;;;;4911877;29;20194;-76
2023/08/11 05:27:10;;;;;;;6.00;3.47;;;;;;;;;;4903410;29;20193;-74
2023/08/11 05:29:37;;;;;;;7.73;3.00;;;;;;;;;;4899380;29;20199;-76
2023/08/11 05:32:03;;;;;;;5.87;3.10;;;;;;;;;;4897993;29;20218;-74
2023/08/11 05:34:31;;;;;;;8.70;3.10;;;;;;;;;;4913003;29;20218;-74
2023/08/11 05:36:57;;;;;;;5.60;3.00;;;;;;;;;;4897765;29;20849;-78
2023/08/11 05:39:24;;;;;;;5.03;2.47;;;;;;;;;;4902923;29;20584;-74
2023/08/11 05:41:51;;;;;;;8.83;2.97;;;;;;;;;;4913812;29;20195;-74
2023/08/11 05:44:19;;;;;;;6.80;2.30;;;;;;;;;;4893543;29;20231;-74
2023/08/11 05:46:46;;;;;;;6.70;2.33;;;;;;;;;;4910623;29;20205;-76
2023/08/11 05:49:12;;;;;;;7.30;2.03;;;;;;;;;;4918295;29;20248;-74
2023/08/11 05:51:57;;;;;;;5.03;2.17;;;;;;;;;;4911965;29;20269;-75
2023/08/11 05:54:23;;;;;;;4.27;2.10;;;;;;;;;;4909792;29;20279;-74
2023/08/11 05:56:52;;;;;;;4.27;2.20;;;;;;;;;;4914750;29;20282;-75
2023/08/11 05:59:20;;;;;;;5.27;1.80;;;;;;;;;;4907273;29;20206;-76
2023/08/11 06:01:47;;;;;;;4.13;1.93;;;;;;;;;;4917826;29;20563;-75
2023/08/11 06:04:14;;;;;;;4.90;2.10;;;;;;;;;;4901512;29;20195;-76
2023/08/11 06:06:41;;;;;;;5.13;1.87;;;;;;;;;;4892725;29;20244;-76
2023/08/11 06:09:08;;;;;;;5.83;1.67;;;;;;;;;;4900991;29;20214;-73
2023/08/11 06:11:36;;;;;;;4.03;1.73;;;;;;;;;;4908260;29;20243;-74
2023/08/11 06:14:03;;;;;;;5.20;1.70;;;;;;;;;;4893850;29;20199;-74
2023/08/11 06:16:30;;;;;;;3.63;1.73;;;;;;;;;;4913892;29;20258;-73
2023/08/11 06:18:57;;;;;;;5.23;1.90;;;;;;;;;;4912426;29;20240;-75
2023/08/11 06:21:24;;;;;;;4.57;1.87;;;;;;;;;;4909378;29;20251;-76
2023/08/11 06:23:51;;;;;;;2.90;1.50;;;;;;;;;;4924723;29;20203;-76
2023/08/11 06:26:17;;;;;;;5.57;1.63;;;;;;;;;;4902890;29;20214;-74
2023/08/11 06:28:45;;;;;;;5.70;1.90;;;;;;;;;;4906474;29;20196;-75
2023/08/11 06:31:11;;;;;;;4.50;1.70;;;;;;;;;;4899313;29;20203;-74
2023/08/11 06:33:38;;;;;;;7.20;2.00;;;;;;;;;;4909438;29;20191;-74
2023/08/11 06:36:05;;;;;;;4.17;2.23;;;;;;;;;;4915738;29;20194;-73
2023/08/11 06:38:32;;;;;;;4.70;1.60;;;;;;;;;;4911823;29;20222;-73
2023/08/11 06:40:59;;;;;;;4.17;1.53;;;;;;;;;;4921445;29;20928;-74
2023/08/11 06:43:26;;;;;;;5.07;1.50;;;;;;;;;;4917384;29;20246;-74
2023/08/11 06:45:53;;;;;;;5.67;1.50;;;;;;;;;;4908904;29;20199;-75
2023/08/11 06:48:21;;;;;;;4.40;1.40;;;;;;;;;;4876557;29;20195;-74
2023/08/11 06:50:48;;;;;;;3.63;1.17;;;;;;;;;;4898622;29;20227;-72
2023/08/11 06:53:15;;;;;;;3.87;1.50;;;;;;;;;;4909501;29;20282;-73
2023/08/11 06:55:42;;;;;;;5.00;1.50;;;;;;;;;;4901417;29;20196;-73
2023/08/11 06:58:09;;;;;;;3.57;1.47;;;;;;;;;;4903265;29;20227;-73
2023/08/11 07:00:36;;;;;;;6.07;1.70;;;;;;;;;;4909391;29;20687;-72
2023/08/11 07:03:03;;;;;;;6.90;2.00;;;;;;;;;;4919265;29;20200;-73
2023/08/11 07:05:31;;;;;;;5.07;1.80;;;;;;;;;;4902665;29;20195;-73
2023/08/11 07:07:58;;;;;;;5.23;1.67;;;;;;;;;;4916860;29;20223;-73
2023/08/11 07:10:25;;;;;;;3.60;1.40;;;;;;;;;;4913691;29;20226;-74
2023/08/11 07:12:52;;;;;;;5.17;1.60;;;;;;;;;;4898827;29;20195;-73
2023/08/11 07:15:19;;;;;;;6.37;1.50;;;;;;;;;;4907943;29;20896;-72
2023/08/11 07:17:46;;;;;;;4.70;1.50;;;;;;;;;;4900079;29;20546;-72
2023/08/11 07:20:14;;;;;;;5.37;1.70;;;;;;;;;;4908855;29;20300;-74
2023/08/11 07:22:42;;;;;;;5.17;1.80;;;;;;;;;;4893778;29;20652;-74
2023/08/11 07:25:09;;;;;;;5.63;1.90;;;;;;;;;;4880232;29;20574;-73
2023/08/11 07:27:36;;;;;;;6.77;1.63;;;;;;;;;;4912689;29;20199;-74
2023/08/11 07:30:04;;;;;;;3.03;1.60;;;;;;;;;;4908971;29;20219;-74
2023/08/11 07:32:31;;;;;;;3.63;1.70;;;;;;;;;;4900071;29;20195;-75
2023/08/11 07:34:58;;;;;;;5.87;2.07;;;;;;;;;;4914702;29;20317;-75
2023/08/11 07:37:25;;;;;;;6.60;1.60;;;;;;;;;;4914322;29;20223;-72
2023/08/11 07:39:52;;;;;;;4.13;1.50;;;;;;;;;;4888978;29;20301;-73
2023/08/11 07:42:19;;;;;;;3.97;1.57;;;;;;;;;;4881429;29;20191;-72
2023/08/11 07:44:46;;;;;;;4.33;1.80;;;;;;;;;;4889676;29;20205;-73
2023/08/11 07:47:13;;;;;;;4.90;1.73;;;;;;;;;;4909474;29;20655;-73
2023/08/11 07:49:41;;;;;;;5.17;1.87;;;;;;;;;;4890263;29;20978;-73
2023/08/11 07:52:07;;;;;;;4.23;1.60;;;;;;;;;;4889858;29;20275;-72
2023/08/11 07:54:35;;;;;;;6.17;1.70;;;;;;;;;;4906021;29;20683;-73
2023/08/11 07:57:02;;;;;;;5.43;1.63;;;;;;;;;;4875876;29;20564;-74
2023/08/11 07:59:29;;;;;;;5.00;1.40;;;;;;;;;;4895340;29;20219;-74
2023/08/11 08:01:56;;;;;;;5.57;2.17;;;;;;;;;;4906779;29;20188;-74
2023/08/11 08:04:24;;;;;;;3.57;1.40;;;;;;;;;;4907159;29;20196;-74
2023/08/11 08:06:57;;;;;;;3.50;1.47;;;;;;;;;;4892569;29;20270;-76
2023/08/11 08:09:28;;;;;;;4.80;1.40;;;;;;;;;;4882607;29;20194;-76
2023/08/11 08:11:55;;;;;;;6.07;1.70;;;;;;;;;;4877192;29;20529;-76
2023/08/11 08:14:22;;;;;;;4.13;1.30;;;;;;;;;;4877128;29;20212;-75
2023/08/11 08:16:49;;;;;;;5.43;1.47;;;;;;;;;;4871225;29;20224;-76
2023/08/11 08:19:17;;;;;;;8.77;1.77;;;;;;;;;;4870938;29;20284;-75
2023/08/11 08:21:45;;;;;;;2.97;1.33;;;;;;;;;;4873742;29;20846;-74
2023/08/11 08:24:14;;;;;;;6.27;1.40;;;;;;;;;;4871940;29;20197;-76
2023/08/11 08:26:41;;;;;;;3.17;1.20;;;;;;;;;;4874231;29;20207;-76
2023/08/11 08:29:08;;;;;;;4.30;1.20;;;;;;;;;;4863731;29;20209;-75
2023/08/11 08:31:35;;;;;;;6.23;1.60;;;;;;;;;;4879587;29;20194;-79
2023/08/11 08:34:02;;;;;;;5.00;1.20;;;;;;;;;;4867897;29;20201;-76
2023/08/11 08:36:29;;;;;;;3.60;1.27;;;;;;;;;;4873953;29;20614;-76
2023/08/11 08:38:56;;;;;;;3.87;1.27;;;;;;;;;;4870811;29;20200;-74
2023/08/11 08:41:27;;;;;;;3.03;1.33;;;;;;;;;;4874669;29;20212;-74
2023/08/11 08:43:54;;;;;;;5.40;1.30;;;;;;;;;;4869488;29;20638;-76
2023/08/11 08:46:22;;;;;;;4.33;1.20;;;;;;;;;;4866316;29;20204;-73
2023/08/11 08:48:57;;;;;;;4.17;1.30;;;;;;;;;;4872261;29;20280;-75
2023/08/11 08:51:24;;;;;;;3.10;1.10;;;;;;;;;;4856678;29;20200;-75
2023/08/11 08:53:51;;;;;;;4.77;1.37;;;;;;;;;;4860981;29;20208;-75
2023/08/11 08:56:18;;;;;;;3.77;1.20;;;;;;;;;;4871327;29;20252;-75
2023/08/11 08:58:45;;;;;;;5.27;1.07;;;;;;;;;;4881158;29;20201;-73
2023/08/11 09:01:13;;;;;;;4.60;1.17;;;;;;;;;;4869892;29;20944;-75
2023/08/11 09:03:40;;;;;;;5.03;1.20;;;;;;;;;;4876829;29;20914;-75
2023/08/11 09:06:07;;;;;;;4.23;1.40;;;;;;;;;;4866780;29;20880;-76
2023/08/11 09:08:38;;;;;;;3.37;1.10;;;;;;;;;;4868402;29;20244;-75
2023/08/11 09:11:07;;;;;;;5.17;1.33;;;;;;;;;;4889030;29;20232;-75
2023/08/11 09:13:35;;;;;;;4.13;1.30;;;;;;;;;;4894275;29;20204;-74
2023/08/11 09:16:04;;;;;;;5.20;1.53;;;;;;;;;;4889648;29;20290;-75
2023/08/11 09:18:31;;;;;;;5.17;1.70;;;;;;;;;;4911134;29;20191;-75
2023/08/11 09:21:16;;;;;;;3.53;1.13;;;;;;;;;;4886855;29;20584;-74
2023/08/11 09:23:43;;;;;;;5.00;1.67;;;;;;;;;;4893809;29;20200;-73
2023/08/11 09:26:10;;;;;;;4.53;1.47;;;;;;;;;;4905753;29;20286;-73
2023/08/11 09:28:38;;;;;;;3.67;1.27;;;;;;;;;;4886035;29;20212;-73
2023/08/11 09:31:06;;;;;;;4.03;1.17;;;;;;;;;;4881358;29;20313;-74
2023/08/11 09:33:36;;;;;;;6.43;1.33;;;;;;;;;;4893149;29;20283;-74
2023/08/11 09:36:04;;;;;;;5.67;1.27;;;;;;;;;;4899351;29;20204;-72
2023/08/11 09:38:36;;;;;;;4.97;1.30;;;;;;;;;;4892080;29;20291;-74
2023/08/11 09:41:03;;;;;;;6.30;1.40;;;;;;;;;;4893890;29;20222;-72
2023/08/11 09:43:30;;;;;;;3.87;1.20;;;;;;;;;;4896774;29;20748;-72
2023/08/11 09:45:59;;;;;;;3.07;1.30;;;;;;;;;;4892072;29;20547;-73
2023/08/11 09:48:31;;;;;;;4.57;1.37;;;;;;;;;;4892647;29;20211;-73
2023/08/11 09:51:16;;;;;;;4.50;1.30;;;;;;;;;;4886639;29;20250;-73
2023/08/11 09:53:43;;;;;;;5.53;1.50;;;;;;;;;;4890178;29;20216;-73
2023/08/11 09:56:10;;;;;;;4.77;1.27;;;;;;;;;;4897140;29;20279;-72
2023/08/11 09:58:37;;;;;;;4.33;1.47;;;;;;;;;;4890815;29;20618;-73
2023/08/11 10:01:07;;;;;;;4.73;1.10;;;;;;;;;;4890288;29;20223;-72
2023/08/11 10:03:47;;;;;;;5.67;1.40;;;;;;;;;;4890937;29;20207;-72
2023/08/11 10:06:16;;;;;;;6.37;1.83;;;;;;;;;;4892391;29;20204;-72
2023/08/11 10:08:44;;;;;;;6.63;1.63;;;;;;;;;;4890115;29;20259;-72
2023/08/11 10:11:11;;;;;;;4.03;1.20;;;;;;;;;;4904153;29;20306;-72
2023/08/11 10:13:41;;;;;;;3.10;1.30;;;;;;;;;;4871454;29;20212;-72
2023/08/11 10:16:08;;;;;;;4.43;1.30;;;;;;;;;;4891873;29;20199;-72
2023/08/11 10:18:36;;;;;;;2.43;1.30;;;;;;;;;;4905824;29;20611;-72
2023/08/11 10:21:03;;;;;;;4.03;1.47;;;;;;;;;;4899902;29;20219;-72
2023/08/11 10:23:30;;;;;;;3.63;1.40;;;;;;;;;;4909151;29;20226;-73
2023/08/11 10:25:57;;;;;;;3.90;1.27;;;;;;;;;;4910642;29;20223;-72
2023/08/11 10:28:24;;;;;;;4.87;1.20;;;;;;;;;;4894123;29;20229;-73
2023/08/11 10:30:58;;;;;;;4.70;1.37;;;;;;;;;;4919692;29;20194;-72
2023/08/11 10:33:29;;;;;;;4.90;1.13;;;;;;;;;;4893108;29;20190;-72
2023/08/11 10:35:57;;;;;;;5.10;1.50;;;;;;;;;;4918357;29;20227;-72
2023/08/11 10:38:27;;;;;;;4.63;1.33;;;;;;;;;;4885455;29;20263;-72
2023/08/11 10:40:57;;;;;;;5.10;1.77;;;;;;;;;;4917280;29;20753;-73
2023/08/11 10:43:27;;;;;;;3.63;1.50;;;;;;;;;;4910676;29;20211;-72
2023/08/11 10:45:54;;;;;;;5.43;1.40;;;;;;;;;;4910394;29;20632;-72
2023/08/11 10:48:21;;;;;;;3.83;1.37;;;;;;;;;;4910051;29;20712;-73
2023/08/11 10:50:48;;;;;;;4.90;1.47;;;;;;;;;;4892737;29;20255;-72
2023/08/11 10:53:21;;;;;;;4.70;1.80;;;;;;;;;;4912882;29;20226;-72
2023/08/11 10:55:58;;;;;;;4.37;1.30;;;;;;;;;;4919587;29;20563;-72
2023/08/11 10:58:26;;;;;;;3.93;1.40;;;;;;;;;;4894468;29;20171;-72
2023/08/11 11:00:53;;;;;;;3.63;1.40;;;;;;;;;;4910120;29;20238;-72
2023/08/11 11:03:20;;;;;;;2.30;1.30;;;;;;;;;;4910831;29;20230;-72
2023/08/11 11:05:48;;;;;;;4.00;1.10;;;;;;;;;;4898079;29;20205;-72
2023/08/11 11:08:15;;;;;;;3.70;1.20;;;;;;;;;;4929465;29;20195;-72
2023/08/11 11:10:42;;;;;;;3.07;1.30;;;;;;;;;;4919801;29;20243;-74
2023/08/11 11:13:16;;;;;;;3.33;1.27;;;;;;;;;;4922685;29;20233;-74
2023/08/11 11:16:00;;;;;;;5.93;1.50;;;;;;;;;;4917748;29;20292;-74
2023/08/11 11:18:28;;;;;;;3.33;1.30;;;;;;;;;;4894247;29;20255;-73
2023/08/11 11:20:55;;;;;;;5.80;1.40;;;;;;;;;;4893068;29;20225;-72
2023/08/11 11:23:22;;;;;;;2.87;1.30;;;;;;;;;;4911011;29;20191;-72
2023/08/11 11:25:49;;;;;;;4.77;1.40;;;;;;;;;;4929508;29;20195;-74
2023/08/11 11:28:16;;;;;;;3.67;1.23;;;;;;;;;;4912194;29;20190;-73
2023/08/11 11:30:43;;;;;;;3.40;1.40;;;;;;;;;;4919962;29;20669;-74
2023/08/11 11:33:13;;;;;;;3.90;1.57;;;;;;;;;;4895739;29;20679;-74
2023/08/11 11:35:58;;;;;;;3.07;1.20;;;;;;;;;;4894780;29;20267;-75
2023/08/11 11:38:25;;;;;;;3.57;1.60;;;;;;;;;;4882317;29;20215;-74
2023/08/11 11:40:53;;;;;;;3.37;1.40;;;;;;;;;;4907972;29;20354;-74
2023/08/11 11:43:20;;;;;;;4.37;1.67;;;;;;;;;;4909847;29;20195;-73
2023/08/11 11:45:50;;;;;;;3.93;1.47;;;;;;;;;;4899109;29;20204;-73
2023/08/11 11:48:19;;;;;;;5.30;1.50;;;;;;;;;;4907901;29;20877;-73
2023/08/11 11:50:46;;;;;;;3.77;1.60;;;;;;;;;;4881322;29;20231;-72
2023/08/11 11:53:13;;;;;;;2.60;1.30;;;;;;;;;;4907318;29;20202;-72
2023/08/11 11:55:46;;;;;;;3.97;1.40;;;;;;;;;;4889720;29;20203;-72
2023/08/11 11:58:14;;;;;;;5.90;1.60;;;;;;;;;;4877628;29;20212;-72
2023/08/11 12:00:45;;;;;;;5.37;1.40;;;;;;;;;;4887910;29;20255;-73
2023/08/11 12:03:12;;;;;;;3.37;1.27;;;;;;;;;;4898031;29;20939;-74
2023/08/11 12:05:38;;;;;;;6.03;1.30;;;;;;;;;;4911543;29;20195;-77
2023/08/11 12:08:23;;;;;;;5.67;1.60;;;;;;;;;;4904741;29;20181;-78
2023/08/11 12:10:50;;;;;;;3.30;1.10;;;;;;;;;;4915517;29;20234;-77
2023/08/11 12:13:17;;;;;;;2.87;1.40;;;;;;;;;;4911864;29;20192;-77
2023/08/11 12:15:47;;;;;;;4.73;1.57;;;;;;;;;;4896444;29;20547;-76
2023/08/11 12:18:14;;;;;;;3.67;1.20;;;;;;;;;;4898451;29;20260;-76
2023/08/11 12:20:41;;;;;;;5.13;1.80;;;;;;;;;;4898262;29;20552;-75
2023/08/11 12:23:10;;;;;;;3.53;1.57;;;;;;;;;;4915023;29;20224;-77
2023/08/11 12:25:36;;;;;;;3.53;1.20;;;;;;;;;;4911027;29;20195;-76
2023/08/11 12:28:04;;;;;;;4.07;1.50;;;;;;;;;;4913448;29;20214;-76
2023/08/11 12:30:34;;;;;;;4.13;1.47;;;;;;;;;;4896709;29;20203;-76
2023/08/11 12:33:02;;;;;;;4.20;1.20;;;;;;;;;;4914398;29;20271;-77
2023/08/11 12:35:33;;;;;;;4.77;1.40;;;;;;;;;;4913305;29;20192;-76
2023/08/11 12:38:01;;;;;;;3.07;1.20;;;;;;;;;;4897385;29;20200;-77
2023/08/11 12:40:30;;;;;;;5.10;1.43;;;;;;;;;;4914496;29;20555;-77
2023/08/11 12:42:57;;;;;;;3.17;1.30;;;;;;;;;;4896421;29;20242;-74
2023/08/11 12:45:23;;;;;;;3.33;1.57;;;;;;;;;;4913323;29;20651;-74
2023/08/11 12:47:50;;;;;;;3.47;1.30;;;;;;;;;;4913338;29;20191;-73
2023/08/11 12:50:17;;;;;;;3.27;1.43;;;;;;;;;;4913490;29;20219;-73
2023/08/11 12:52:45;;;;;;;4.30;1.40;;;;;;;;;;4896329;29;20199;-73
2023/08/11 12:55:12;;;;;;;5.13;1.57;;;;;;;;;;4911892;29;20287;-73
2023/08/11 12:57:43;;;;;;;4.20;1.33;;;;;;;;;;4913153;29;20223;-73
2023/08/11 13:00:10;;;;;;;4.87;1.20;;;;;;;;;;4913524;29;20259;-73
2023/08/11 13:02:37;;;;;;;4.47;1.47;;;;;;;;;;4912730;29;20211;-72
2023/08/11 13:05:04;;;;;;;3.03;1.30;;;;;;;;;;4913455;29;20188;-73
2023/08/11 13:07:31;;;;;;;3.30;1.43;;;;;;;;;;4912956;29;20207;-73
2023/08/11 13:09:57;;;;;;;4.17;1.60;;;;;;;;;;4894910;29;20267;-73
2023/08/11 13:12:25;;;;;;;11.13;2.27;;;;;;;;;;4912866;29;20204;-73
2023/08/11 13:14:52;;;;;;;2.80;1.60;;;;;;;;;;4896178;29;20201;-73
2023/08/11 13:17:19;;;;;;;6.07;1.77;;;;;;;;;;4913085;29;20207;-74
2023/08/11 13:19:46;;;;;;;4.57;2.43;;;;;;;;;;4913299;29;20195;-74
2023/08/11 13:22:13;;;;;;;6.47;2.40;;;;;;;;;;4912856;29;20207;-74
2023/08/11 13:24:40;;;;;;;6.60;1.87;;;;;;;;;;4911851;29;20199;-74
2023/08/11 13:27:24;;;;;;;2.83;1.60;;;;;;;;;;4912876;29;20179;-74
2023/08/11 13:29:51;;;;;;;4.60;1.60;;;;;;;;;;4913314;29;20208;-75
2023/08/11 13:32:18;;;;;;;3.73;1.30;;;;;;;;;;4896555;29;20196;-75
2023/08/11 13:34:45;;;;;;;3.23;1.40;;;;;;;;;;4925053;29;20670;-75
2023/08/11 13:37:11;;;;;;;2.67;1.40;;;;;;;;;;4932458;29;20246;-75
2023/08/11 13:39:38;;;;;;;5.03;1.43;;;;;;;;;;4932298;29;20191;-75
2023/08/11 13:42:07;;;;;;;3.63;1.33;;;;;;;;;;4921874;29;20222;-75
2023/08/11 13:44:34;;;;;;;4.07;1.63;;;;;;;;;;4912846;29;20683;-75
2023/08/11 13:47:01;;;;;;;5.53;2.90;;;;;;;;;;4887306;29;20680;-76
2023/08/11 13:49:28;;;;;;;7.67;2.03;;;;;;;;;;4931861;29;20270;-75
2023/08/11 13:51:55;;;;;;;4.13;2.00;;;;;;;;;;4925395;29;20203;-76
2023/08/11 13:54:22;;;;;;;5.40;1.37;;;;;;;;;;4910240;29;20188;-77
2023/08/11 13:56:49;;;;;;;8.83;1.93;;;;;;;;;;4909290;29;20199;-75
2023/08/11 13:59:16;;;;;;;14.77;2.83;;;;;;;;;;4903831;29;20196;-76
2023/08/11 14:01:43;;;;;;;5.23;1.73;;;;;;;;;;4883646;29;20262;-76
2023/08/11 14:04:13;;;;;;;3.80;1.40;;;;;;;;;;4896377;29;20256;-76
2023/08/11 14:06:40;;;;;;;5.10;1.63;;;;;;;;;;4904187;29;20640;-76
2023/08/11 14:09:07;;;;;;;5.10;1.60;;;;;;;;;;4909329;29;20283;-75
2023/08/11 14:11:35;;;;;;;5.37;1.93;;;;;;;;;;4905848;29;20220;-76
2023/08/11 14:14:03;;;;;;;6.57;1.77;;;;;;;;;;4888055;29;20200;-77
2023/08/11 14:16:37;;;;;;;6.77;2.00;;;;;;;;;;4905299;29;20192;-76
2023/08/11 14:19:06;;;;;;;5.00;1.63;;;;;;;;;;4906159;29;20298;-77
2023/08/11 14:21:33;;;;;;;5.50;1.40;;;;;;;;;;4891864;29;20218;-76
2023/08/11 14:24:00;;;;;;;7.20;1.80;;;;;;;;;;4908062;29;20200;-75
2023/08/11 14:26:27;;;;;;;5.50;1.70;;;;;;;;;;4900707;29;20212;-76
2023/08/11 14:28:55;;;;;;;5.83;1.63;;;;;;;;;;4909113;29;20190;-75
2023/08/11 14:31:22;;;;;;;6.30;1.60;;;;;;;;;;4889095;29;20592;-76
2023/08/11 14:33:49;;;;;;;6.70;2.07;;;;;;;;;;4902919;29;20207;-77
2023/08/11 14:36:16;;;;;;;4.53;1.77;;;;;;;;;;4901423;29;20190;-77
2023/08/11 14:38:43;;;;;;;4.93;1.50;;;;;;;;;;4898311;29;20231;-76
2023/08/11 14:41:10;;;;;;;11.47;2.30;;;;;;;;;;4900407;29;20226;-76
2023/08/11 14:43:37;;;;;;;7.60;1.73;;;;;;;;;;4904453;29;20212;-77
2023/08/11 14:46:05;;;;;;;4.30;1.60;;;;;;;;;;4909859;29;20189;-77
2023/08/11 14:48:33;;;;;;;3.87;1.70;;;;;;;;;;4899113;29;20205;-76
2023/08/11 14:51:00;;;;;;;5.27;1.63;;;;;;;;;;4884487;29;20223;-76
2023/08/11 14:53:30;;;;;;;3.03;1.60;;;;;;;;;;4904344;29;20204;-77
2023/08/11 14:55:57;;;;;;;4.43;1.70;;;;;;;;;;4901628;29;20200;-76
2023/08/11 14:58:26;;;;;;;4.57;1.73;;;;;;;;;;4909796;29;20227;-76
2023/08/11 15:00:56;;;;;;;6.70;1.67;;;;;;;;;;4887852;29;20222;-77
2023/08/11 15:03:26;;;;;;;7.70;1.90;;;;;;;;;;4880578;29;20236;-77
2023/08/11 15:05:54;;;;;;;6.47;1.83;;;;;;;;;;4885869;29;20228;-76
2023/08/11 15:08:21;;;;;;;4.53;2.00;;;;;;;;;;4905847;29;20196;-76
2023/08/11 15:10:49;;;;;;;4.10;1.50;;;;;;;;;;4911630;29;20227;-76
2023/08/11 15:13:34;;;;;;;5.77;1.40;;;;;;;;;;4892574;29;20858;-77
2023/08/11 15:16:02;;;;;;;6.47;1.60;;;;;;;;;;4911259;29;20203;-76
2023/08/11 15:18:30;;;;;;;7.27;2.03;;;;;;;;;;4892654;29;20256;-73
2023/08/11 15:20:58;;;;;;;5.13;1.60;;;;;;;;;;4889810;29;20278;-73
2023/08/11 15:23:25;;;;;;;3.97;1.50;;;;;;;;;;4892954;29;20211;-73
2023/08/11 15:25:53;;;;;;;3.30;1.50;;;;;;;;;;4909184;29;20199;-73